DTKA

Tabarka 7 Novembre Airport

Tabarka, Tunisia
METAR DTKA 150000Z AUTO 24005KT /// 25/21 Q1015
Observed Flight Rules
Aug-15 @ 00:00 UTC (an hour ago)
Wind
240° at 5 knots
Temperatures Readings
Current 25°C / 77°F
Dewpoint 21°C / 70°F
Humidity 79%
Altimeter 29.97" Hg
Pressure 1015 hPa
Elevation 21
METAR DTKA 150000Z AUTO 24005KT /// 25/21 Q1015
Observed Flight Rules
Aug-15 @ 00:00 UTC
(an hour ago)
Wind
240° at 5 knots
Temperature Dewpoint
25°C / 77°F 21°C / 70°F
Humidity Altimeter Pressure
79% 29.97" Hg 1015 hPa